sensor_id;sensor_type;location;lat;lon;timestamp;temperature;humidity
20432;DHT22;10375;49.136;10.366;2023-07-22T00:00:05;14.20;99.90
20432;DHT22;10375;49.136;10.366;2023-07-22T00:02:33;14.30;99.90
20432;DHT22;10375;49.136;10.366;2023-07-22T00:05:00;14.20;99.90
20432;DHT22;10375;49.136;10.366;2023-07-22T00:07:27;14.30;99.90
20432;DHT22;10375;49.136;10.366;2023-07-22T00:09:54;14.20;99.90
20432;DHT22;10375;49.136;10.366;2023-07-22T00:12:21;14.10;99.90
20432;DHT22;10375;49.136;10.366;2023-07-22T00:14:52;13.90;99.90
20432;DHT22;10375;49.136;10.366;2023-07-22T00:17:20;13.80;99.90
20432;DHT22;10375;49.136;10.366;2023-07-22T00:19:48;13.70;99.90
20432;DHT22;10375;49.136;10.366;2023-07-22T00:22:15;13.60;99.90
20432;DHT22;10375;49.136;10.366;2023-07-22T00:24:42;13.50;99.90
20432;DHT22;10375;49.136;10.366;2023-07-22T00:27:09;13.30;99.90
20432;DHT22;10375;49.136;10.366;2023-07-22T00:29:36;13.20;99.90
20432;DHT22;10375;49.136;10.366;2023-07-22T00:32:05;13.20;99.90
20432;DHT22;10375;49.136;10.366;2023-07-22T00:34:34;13.20;99.90
20432;DHT22;10375;49.136;10.366;2023-07-22T00:37:01;13.10;99.90
20432;DHT22;10375;49.136;10.366;2023-07-22T00:39:29;13.10;99.90
20432;DHT22;10375;49.136;10.366;2023-07-22T00:41:56;13.10;99.90
20432;DHT22;10375;49.136;10.366;2023-07-22T00:44:23;13.00;99.90
20432;DHT22;10375;49.136;10.366;2023-07-22T00:46:55;13.00;99.90
20432;DHT22;10375;49.136;10.366;2023-07-22T00:49:24;13.00;99.90
20432;DHT22;10375;49.136;10.366;2023-07-22T00:51:52;12.90;99.90
20432;DHT22;10375;49.136;10.366;2023-07-22T00:54:19;12.90;99.90
20432;DHT22;10375;49.136;10.366;2023-07-22T00:56:47;12.90;99.90
20432;DHT22;10375;49.136;10.366;2023-07-22T00:59:15;13.00;99.90
20432;DHT22;10375;49.136;10.366;2023-07-22T01:01:43;13.00;99.90
20432;DHT22;10375;49.136;10.366;2023-07-22T01:04:10;13.00;99.90
20432;DHT22;10375;49.136;10.366;2023-07-22T01:06:37;13.00;99.90
20432;DHT22;10375;49.136;10.366;2023-07-22T01:09:05;13.00;99.90
20432;DHT22;10375;49.136;10.366;2023-07-22T01:11:34;12.90;99.90
20432;DHT22;10375;49.136;10.366;2023-07-22T01:14:01;12.90;99.90
20432;DHT22;10375;49.136;10.366;2023-07-22T01:16:29;12.90;99.90
20432;DHT22;10375;49.136;10.366;2023-07-22T01:18:56;12.90;99.90
20432;DHT22;10375;49.136;10.366;2023-07-22T01:21:24;12.90;99.90
20432;DHT22;10375;49.136;10.366;2023-07-22T01:23:52;12.90;99.90
20432;DHT22;10375;49.136;10.366;2023-07-22T01:26:19;12.90;99.90
20432;DHT22;10375;49.136;10.366;2023-07-22T01:28:46;12.90;99.90
20432;DHT22;10375;49.136;10.366;2023-07-22T01:31:13;13.00;99.90
20432;DHT22;10375;49.136;10.366;2023-07-22T01:33:41;13.00;99.90
20432;DHT22;10375;49.136;10.366;2023-07-22T01:36:08;13.00;99.90
20432;DHT22;10375;49.136;10.366;2023-07-22T01:38:35;13.00;99.90
20432;DHT22;10375;49.136;10.366;2023-07-22T01:41:02;13.00;99.90
20432;DHT22;10375;49.136;10.366;2023-07-22T01:43:29;12.80;99.90
20432;DHT22;10375;49.136;10.366;2023-07-22T01:45:56;12.80;99.90
20432;DHT22;10375;49.136;10.366;2023-07-22T01:48:24;12.80;99.90
20432;DHT22;10375;49.136;10.366;2023-07-22T01:50:51;12.70;99.90
20432;DHT22;10375;49.136;10.366;2023-07-22T01:53:18;12.70;99.90
20432;DHT22;10375;49.136;10.366;2023-07-22T01:55:45;12.60;99.90
20432;DHT22;10375;49.136;10.366;2023-07-22T01:58:12;12.50;99.90
20432;DHT22;10375;49.136;10.366;2023-07-22T02:00:39;12.40;99.90
20432;DHT22;10375;49.136;10.366;2023-07-22T02:03:06;12.40;99.90
20432;DHT22;10375;49.136;10.366;2023-07-22T02:05:33;12.30;99.90
20432;DHT22;10375;49.136;10.366;2023-07-22T02:08:00;12.40;99.90
20432;DHT22;10375;49.136;10.366;2023-07-22T02:10:27;12.30;99.90
20432;DHT22;10375;49.136;10.366;2023-07-22T02:12:55;12.30;99.90
20432;DHT22;10375;49.136;10.366;2023-07-22T02:15:22;12.40;99.90
20432;DHT22;10375;49.136;10.366;2023-07-22T02:17:51;12.30;99.90
20432;DHT22;10375;49.136;10.366;2023-07-22T02:20:18;12.30;99.90
20432;DHT22;10375;49.136;10.366;2023-07-22T02:22:45;12.20;99.90
20432;DHT22;10375;49.136;10.366;2023-07-22T02:25:12;12.10;99.90
20432;DHT22;10375;49.136;10.366;2023-07-22T02:27:41;12.00;99.90
20432;DHT22;10375;49.136;10.366;2023-07-22T02:30:09;12.00;99.90
20432;DHT22;10375;49.136;10.366;2023-07-22T02:32:39;11.90;99.90
20432;DHT22;10375;49.136;10.366;2023-07-22T02:35:09;11.90;99.90
20432;DHT22;10375;49.136;10.366;2023-07-22T02:37:38;11.80;99.90
20432;DHT22;10375;49.136;10.366;2023-07-22T02:40:06;11.90;99.90
20432;DHT22;10375;49.136;10.366;2023-07-22T02:42:38;11.80;99.90
20432;DHT22;10375;49.136;10.366;2023-07-22T02:45:06;11.80;99.90
20432;DHT22;10375;49.136;10.366;2023-07-22T02:47:34;11.80;99.90
20432;DHT22;10375;49.136;10.366;2023-07-22T02:50:02;11.80;99.90
20432;DHT22;10375;49.136;10.366;2023-07-22T02:52:31;11.90;99.90
20432;DHT22;10375;49.136;10.366;2023-07-22T02:55:11;12.00;99.90
20432;DHT22;10375;49.136;10.366;2023-07-22T02:57:39;12.10;99.90
20432;DHT22;10375;49.136;10.366;2023-07-22T03:00:08;12.20;99.90
20432;DHT22;10375;49.136;10.366;2023-07-22T03:02:35;12.30;99.90
20432;DHT22;10375;49.136;10.366;2023-07-22T03:05:07;12.30;99.90
20432;DHT22;10375;49.136;10.366;2023-07-22T03:07:36;12.30;99.90
20432;DHT22;10375;49.136;10.366;2023-07-22T03:10:04;12.20;99.90
20432;DHT22;10375;49.136;10.366;2023-07-22T03:12:33;12.20;99.90
20432;DHT22;10375;49.136;10.366;2023-07-22T03:15:00;12.20;99.90
20432;DHT22;10375;49.136;10.366;2023-07-22T03:17:27;12.30;99.90
20432;DHT22;10375;49.136;10.366;2023-07-22T03:19:54;12.30;99.90
20432;DHT22;10375;49.136;10.366;2023-07-22T03:22:21;12.20;99.90
20432;DHT22;10375;49.136;10.366;2023-07-22T03:24:48;12.20;99.90
20432;DHT22;10375;49.136;10.366;2023-07-22T03:27:16;12.10;99.90
20432;DHT22;10375;49.136;10.366;2023-07-22T03:29:44;12.10;99.90
20432;DHT22;10375;49.136;10.366;2023-07-22T03:32:11;12.10;99.90
20432;DHT22;10375;49.136;10.366;2023-07-22T03:34:38;12.00;99.90
20432;DHT22;10375;49.136;10.366;2023-07-22T03:37:06;12.00;99.90
20432;DHT22;10375;49.136;10.366;2023-07-22T03:39:33;11.90;99.90
20432;DHT22;10375;49.136;10.366;2023-07-22T03:42:00;11.90;99.90
20432;DHT22;10375;49.136;10.366;2023-07-22T03:44:27;11.90;99.90
20432;DHT22;10375;49.136;10.366;2023-07-22T03:46:56;12.00;99.90
20432;DHT22;10375;49.136;10.366;2023-07-22T03:49:23;11.90;99.90
20432;DHT22;10375;49.136;10.366;2023-07-22T03:51:50;12.00;99.90
20432;DHT22;10375;49.136;10.366;2023-07-22T03:54:17;12.00;99.90
20432;DHT22;10375;49.136;10.366;2023-07-22T03:56:45;12.00;99.90
20432;DHT22;10375;49.136;10.366;2023-07-22T03:59:12;12.10;99.90
20432;DHT22;10375;49.136;10.366;2023-07-22T04:01:39;12.30;99.90
20432;DHT22;10375;49.136;10.366;2023-07-22T04:04:06;12.40;99.90
20432;DHT22;10375;49.136;10.366;2023-07-22T04:06:33;12.40;99.90
20432;DHT22;10375;49.136;10.366;2023-07-22T04:09:00;12.40;99.90
20432;DHT22;10375;49.136;10.366;2023-07-22T04:11:27;12.40;99.90
20432;DHT22;10375;49.136;10.366;2023-07-22T04:13:54;12.30;99.90
20432;DHT22;10375;49.136;10.366;2023-07-22T04:16:21;12.40;99.90
20432;DHT22;10375;49.136;10.366;2023-07-22T04:18:49;12.40;99.90
20432;DHT22;10375;49.136;10.366;2023-07-22T04:21:16;12.40;99.90
20432;DHT22;10375;49.136;10.366;2023-07-22T04:23:43;12.50;99.90
20432;DHT22;10375;49.136;10.366;2023-07-22T04:26:10;12.40;99.90
20432;DHT22;10375;49.136;10.366;2023-07-22T04:28:37;12.40;99.90
20432;DHT22;10375;49.136;10.366;2023-07-22T04:31:04;12.40;99.90
20432;DHT22;10375;49.136;10.366;2023-07-22T04:33:31;12.40;99.90
20432;DHT22;10375;49.136;10.366;2023-07-22T04:35:59;12.50;99.90
20432;DHT22;10375;49.136;10.366;2023-07-22T04:38:27;12.60;99.90
20432;DHT22;10375;49.136;10.366;2023-07-22T04:40:58;12.80;99.90
20432;DHT22;10375;49.136;10.366;2023-07-22T04:43:26;13.00;99.90
20432;DHT22;10375;49.136;10.366;2023-07-22T04:45:53;13.20;99.90
20432;DHT22;10375;49.136;10.366;2023-07-22T04:48:21;13.40;99.90
20432;DHT22;10375;49.136;10.366;2023-07-22T04:50:51;13.50;99.90
20432;DHT22;10375;49.136;10.366;2023-07-22T04:53:20;13.50;99.90
20432;DHT22;10375;49.136;10.366;2023-07-22T04:55:48;13.60;99.90
20432;DHT22;10375;49.136;10.366;2023-07-22T04:58:15;13.70;99.90
20432;DHT22;10375;49.136;10.366;2023-07-22T05:00:42;13.90;99.90
20432;DHT22;10375;49.136;10.366;2023-07-22T05:03:10;14.00;99.90
20432;DHT22;10375;49.136;10.366;2023-07-22T05:05:37;14.20;99.90
20432;DHT22;10375;49.136;10.366;2023-07-22T05:08:04;14.40;99.90
20432;DHT22;10375;49.136;10.366;2023-07-22T05:10:34;14.60;99.90
20432;DHT22;10375;49.136;10.366;2023-07-22T05:13:01;14.80;99.90
20432;DHT22;10375;49.136;10.366;2023-07-22T05:15:28;14.80;99.90
20432;DHT22;10375;49.136;10.366;2023-07-22T05:17:55;15.00;99.90
20432;DHT22;10375;49.136;10.366;2023-07-22T05:20:22;15.20;99.90
20432;DHT22;10375;49.136;10.366;2023-07-22T05:22:49;15.40;99.90
20432;DHT22;10375;49.136;10.366;2023-07-22T05:25:16;16.30;99.90
20432;DHT22;10375;49.136;10.366;2023-07-22T05:27:44;18.50;99.90
20432;DHT22;10375;49.136;10.366;2023-07-22T05:30:11;20.80;99.90
20432;DHT22;10375;49.136;10.366;2023-07-22T05:32:58;22.10;99.90
20432;DHT22;10375;49.136;10.366;2023-07-22T05:35:25;23.10;96.80
20432;DHT22;10375;49.136;10.366;2023-07-22T05:37:52;23.40;94.90
20432;DHT22;10375;49.136;10.366;2023-07-22T05:40:20;24.40;93.60
20432;DHT22;10375;49.136;10.366;2023-07-22T05:42:47;25.30;91.20
20432;DHT22;10375;49.136;10.366;2023-07-22T05:45:14;25.90;87.90
20432;DHT22;10375;49.136;10.366;2023-07-22T05:47:43;25.70;86.60
20432;DHT22;10375;49.136;10.366;2023-07-22T05:50:10;25.80;86.00
20432;DHT22;10375;49.136;10.366;2023-07-22T05:52:37;26.00;85.30
20432;DHT22;10375;49.136;10.366;2023-07-22T05:55:05;26.70;84.40
20432;DHT22;10375;49.136;10.366;2023-07-22T05:57:32;26.80;80.20
20432;DHT22;10375;49.136;10.366;2023-07-22T05:59:59;26.70;80.60
20432;DHT22;10375;49.136;10.366;2023-07-22T06:02:29;27.00;79.90
20432;DHT22;10375;49.136;10.366;2023-07-22T06:04:56;27.00;78.20
20432;DHT22;10375;49.136;10.366;2023-07-22T06:07:23;26.70;78.90
20432;DHT22;10375;49.136;10.366;2023-07-22T06:09:50;26.80;79.20
20432;DHT22;10375;49.136;10.366;2023-07-22T06:12:17;27.60;78.50
20432;DHT22;10375;49.136;10.366;2023-07-22T06:14:44;28.00;76.40
20432;DHT22;10375;49.136;10.366;2023-07-22T06:17:12;28.30;75.00
20432;DHT22;10375;49.136;10.366;2023-07-22T06:19:39;28.20;74.30
20432;DHT22;10375;49.136;10.366;2023-07-22T06:22:06;28.00;76.20
20432;DHT22;10375;49.136;10.366;2023-07-22T06:24:33;28.10;76.30
20432;DHT22;10375;49.136;10.366;2023-07-22T06:27:00;28.30;76.20
20432;DHT22;10375;49.136;10.366;2023-07-22T06:29:28;28.80;73.00
20432;DHT22;10375;49.136;10.366;2023-07-22T06:31:55;28.30;75.50
20432;DHT22;10375;49.136;10.366;2023-07-22T06:34:22;28.80;73.60
20432;DHT22;10375;49.136;10.366;2023-07-22T06:36:49;28.80;72.80
20432;DHT22;10375;49.136;10.366;2023-07-22T06:39:16;29.00;73.90
20432;DHT22;10375;49.136;10.366;2023-07-22T06:41:43;29.80;70.90
20432;DHT22;10375;49.136;10.366;2023-07-22T06:44:10;30.20;70.00
20432;DHT22;10375;49.136;10.366;2023-07-22T06:46:38;30.20;70.00
20432;DHT22;10375;49.136;10.366;2023-07-22T06:49:05;30.00;71.30
20432;DHT22;10375;49.136;10.366;2023-07-22T06:51:32;29.20;70.60
20432;DHT22;10375;49.136;10.366;2023-07-22T06:53:59;29.50;71.60
20432;DHT22;10375;49.136;10.366;2023-07-22T06:56:26;30.10;70.10
20432;DHT22;10375;49.136;10.366;2023-07-22T06:58:54;30.30;65.70
20432;DHT22;10375;49.136;10.366;2023-07-22T07:01:21;30.30;66.00
20432;DHT22;10375;49.136;10.366;2023-07-22T07:03:48;30.80;64.70
20432;DHT22;10375;49.136;10.366;2023-07-22T07:06:15;31.00;66.70
20432;DHT22;10375;49.136;10.366;2023-07-22T07:08:42;31.40;65.10
20432;DHT22;10375;49.136;10.366;2023-07-22T07:11:10;32.10;64.10
20432;DHT22;10375;49.136;10.366;2023-07-22T07:13:37;32.30;63.40
20432;DHT22;10375;49.136;10.366;2023-07-22T07:16:21;32.30;60.90
20432;DHT22;10375;49.136;10.366;2023-07-22T07:18:51;31.30;61.40
20432;DHT22;10375;49.136;10.366;2023-07-22T07:21:19;31.10;64.80
20432;DHT22;10375;49.136;10.366;2023-07-22T07:23:48;30.80;63.50
20432;DHT22;10375;49.136;10.366;2023-07-22T07:26:15;30.60;65.00
20432;DHT22;10375;49.136;10.366;2023-07-22T07:28:43;31.10;64.30
20432;DHT22;10375;49.136;10.366;2023-07-22T07:31:10;31.40;62.70
20432;DHT22;10375;49.136;10.366;2023-07-22T07:33:37;31.70;62.40
20432;DHT22;10375;49.136;10.366;2023-07-22T07:36:04;31.10;62.10
20432;DHT22;10375;49.136;10.366;2023-07-22T07:38:32;28.80;65.30
20432;DHT22;10375;49.136;10.366;2023-07-22T07:41:01;27.50;70.40
20432;DHT22;10375;49.136;10.366;2023-07-22T07:43:30;27.00;70.20
20432;DHT22;10375;49.136;10.366;2023-07-22T07:48:46;25.00;75.60
20432;DHT22;10375;49.136;10.366;2023-07-22T07:51:14;24.30;77.70
20432;DHT22;10375;49.136;10.366;2023-07-22T07:53:42;24.10;78.60
20432;DHT22;10375;49.136;10.366;2023-07-22T07:56:11;23.80;79.60
20432;DHT22;10375;49.136;10.366;2023-07-22T07:58:39;24.20;81.10
20432;DHT22;10375;49.136;10.366;2023-07-22T08:01:06;24.80;76.50
20432;DHT22;10375;49.136;10.366;2023-07-22T08:03:35;24.20;77.10
20432;DHT22;10375;49.136;10.366;2023-07-22T08:06:03;24.20;78.80
20432;DHT22;10375;49.136;10.366;2023-07-22T08:08:30;23.90;79.20
20432;DHT22;10375;49.136;10.366;2023-07-22T08:11:01;24.30;79.80
20432;DHT22;10375;49.136;10.366;2023-07-22T08:13:30;25.30;78.50
20432;DHT22;10375;49.136;10.366;2023-07-22T08:15:58;26.00;75.60
20432;DHT22;10375;49.136;10.366;2023-07-22T08:18:26;26.30;75.20
20432;DHT22;10375;49.136;10.366;2023-07-22T08:20:57;26.80;73.60
20432;DHT22;10375;49.136;10.366;2023-07-22T08:23:25;27.20;73.40
20432;DHT22;10375;49.136;10.366;2023-07-22T08:25:52;27.00;72.70
20432;DHT22;10375;49.136;10.366;2023-07-22T08:28:19;26.70;72.00
20432;DHT22;10375;49.136;10.366;2023-07-22T08:30:48;26.80;71.60
20432;DHT22;10375;49.136;10.366;2023-07-22T08:33:15;26.40;73.30
20432;DHT22;10375;49.136;10.366;2023-07-22T08:36:05;26.20;74.50
20432;DHT22;10375;49.136;10.366;2023-07-22T08:38:32;26.40;75.30
20432;DHT22;10375;49.136;10.366;2023-07-22T08:40:59;26.20;74.20
20432;DHT22;10375;49.136;10.366;2023-07-22T08:43:28;26.30;74.60
20432;DHT22;10375;49.136;10.366;2023-07-22T08:46:00;26.50;73.90
20432;DHT22;10375;49.136;10.366;2023-07-22T08:48:30;26.20;73.00
20432;DHT22;10375;49.136;10.366;2023-07-22T08:51:15;26.30;73.30
20432;DHT22;10375;49.136;10.366;2023-07-22T08:53:47;26.90;71.40
20432;DHT22;10375;49.136;10.366;2023-07-22T08:56:34;27.50;69.00
20432;DHT22;10375;49.136;10.366;2023-07-22T08:59:03;27.40;68.30
20432;DHT22;10375;49.136;10.366;2023-07-22T09:01:32;26.90;69.30
20432;DHT22;10375;49.136;10.366;2023-07-22T09:04:00;26.50;70.50
20432;DHT22;10375;49.136;10.366;2023-07-22T09:06:27;26.70;70.10
20432;DHT22;10375;49.136;10.366;2023-07-22T09:08:55;27.20;67.60
20432;DHT22;10375;49.136;10.366;2023-07-22T09:11:23;27.30;67.20
20432;DHT22;10375;49.136;10.366;2023-07-22T09:13:51;26.60;67.10
20432;DHT22;10375;49.136;10.366;2023-07-22T09:16:18;25.90;67.20
20432;DHT22;10375;49.136;10.366;2023-07-22T09:18:46;25.40;69.50
20432;DHT22;10375;49.136;10.366;2023-07-22T09:21:14;25.50;70.10
20432;DHT22;10375;49.136;10.366;2023-07-22T09:23:41;26.10;70.10
20432;DHT22;10375;49.136;10.366;2023-07-22T09:26:13;26.50;66.20
20432;DHT22;10375;49.136;10.366;2023-07-22T09:28:55;26.80;69.50
20432;DHT22;10375;49.136;10.366;2023-07-22T09:31:24;27.40;66.80
20432;DHT22;10375;49.136;10.366;2023-07-22T09:33:52;27.20;62.00
20432;DHT22;10375;49.136;10.366;2023-07-22T09:36:22;26.90;64.40
20432;DHT22;10375;49.136;10.366;2023-07-22T09:39:02;26.70;64.60
20432;DHT22;10375;49.136;10.366;2023-07-22T09:41:30;26.30;63.70
20432;DHT22;10375;49.136;10.366;2023-07-22T09:44:02;25.40;65.30
20432;DHT22;10375;49.136;10.366;2023-07-22T09:46:33;25.40;68.10
20432;DHT22;10375;49.136;10.366;2023-07-22T09:49:03;25.20;66.00
20432;DHT22;10375;49.136;10.366;2023-07-22T09:51:36;24.70;66.00
20432;DHT22;10375;49.136;10.366;2023-07-22T09:54:26;24.30;68.60
20432;DHT22;10375;49.136;10.366;2023-07-22T09:56:58;24.70;68.00
20432;DHT22;10375;49.136;10.366;2023-07-22T09:59:29;25.00;66.00
20432;DHT22;10375;49.136;10.366;2023-07-22T10:01:57;24.60;65.20
20432;DHT22;10375;49.136;10.366;2023-07-22T10:04:34;24.30;66.40
20432;DHT22;10375;49.136;10.366;2023-07-22T10:07:05;24.60;67.10
20432;DHT22;10375;49.136;10.366;2023-07-22T10:09:37;25.80;67.20
20432;DHT22;10375;49.136;10.366;2023-07-22T10:12:05;27.00;62.20
20432;DHT22;10375;49.136;10.366;2023-07-22T10:14:33;27.70;59.20
20432;DHT22;10375;49.136;10.366;2023-07-22T10:17:05;27.90;58.90
20432;DHT22;10375;49.136;10.366;2023-07-22T10:19:33;28.00;59.60
20432;DHT22;10375;49.136;10.366;2023-07-22T10:22:00;27.50;59.20
20432;DHT22;10375;49.136;10.366;2023-07-22T10:24:28;26.80;59.40
20432;DHT22;10375;49.136;10.366;2023-07-22T10:26:56;26.70;62.30
20432;DHT22;10375;49.136;10.366;2023-07-22T10:29:25;26.90;61.20
20432;DHT22;10375;49.136;10.366;2023-07-22T10:31:54;26.90;60.00
20432;DHT22;10375;49.136;10.366;2023-07-22T10:34:23;26.60;59.30
20432;DHT22;10375;49.136;10.366;2023-07-22T10:36:50;26.40;58.70
20432;DHT22;10375;49.136;10.366;2023-07-22T10:39:28;26.50;58.30
20432;DHT22;10375;49.136;10.366;2023-07-22T10:42:05;27.00;58.60
20432;DHT22;10375;49.136;10.366;2023-07-22T10:44:36;27.50;58.00
20432;DHT22;10375;49.136;10.366;2023-07-22T10:47:04;27.90;56.20
20432;DHT22;10375;49.136;10.366;2023-07-22T10:49:46;28.10;56.10
20432;DHT22;10375;49.136;10.366;2023-07-22T10:52:14;27.60;56.80
20432;DHT22;10375;49.136;10.366;2023-07-22T10:54:41;27.10;57.80
20432;DHT22;10375;49.136;10.366;2023-07-22T10:59:50;27.00;58.30
20432;DHT22;10375;49.136;10.366;2023-07-22T11:02:28;27.00;55.60
20432;DHT22;10375;49.136;10.366;2023-07-22T11:04:57;26.30;56.50
20432;DHT22;10375;49.136;10.366;2023-07-22T11:07:41;26.20;57.70
20432;DHT22;10375;49.136;10.366;2023-07-22T11:10:17;26.30;58.20
20432;DHT22;10375;49.136;10.366;2023-07-22T11:12:45;26.20;58.70
20432;DHT22;10375;49.136;10.366;2023-07-22T11:15:16;26.90;62.40
20432;DHT22;10375;49.136;10.366;2023-07-22T11:17:45;27.40;61.30
20432;DHT22;10375;49.136;10.366;2023-07-22T11:20:12;27.50;60.70
20432;DHT22;10375;49.136;10.366;2023-07-22T11:22:44;27.40;57.90
20432;DHT22;10375;49.136;10.366;2023-07-22T11:25:17;27.20;57.30
20432;DHT22;10375;49.136;10.366;2023-07-22T11:27:45;27.10;58.70
20432;DHT22;10375;49.136;10.366;2023-07-22T11:30:13;27.10;60.00
20432;DHT22;10375;49.136;10.366;2023-07-22T11:32:44;26.90;56.20
20432;DHT22;10375;49.136;10.366;2023-07-22T11:35:16;26.60;57.30
20432;DHT22;10375;49.136;10.366;2023-07-22T11:37:44;26.20;57.80
20432;DHT22;10375;49.136;10.366;2023-07-22T11:40:12;25.90;57.10
20432;DHT22;10375;49.136;10.366;2023-07-22T11:42:41;26.00;58.00
20432;DHT22;10375;49.136;10.366;2023-07-22T11:45:08;26.60;57.70
20432;DHT22;10375;49.136;10.366;2023-07-22T11:47:36;27.50;55.90
20432;DHT22;10375;49.136;10.366;2023-07-22T11:50:04;27.90;54.40
20432;DHT22;10375;49.136;10.366;2023-07-22T11:52:31;28.00;53.80
20432;DHT22;10375;49.136;10.366;2023-07-22T11:55:02;28.10;53.40
20432;DHT22;10375;49.136;10.366;2023-07-22T11:57:30;28.40;53.80
20432;DHT22;10375;49.136;10.366;2023-07-22T11:59:57;28.50;51.70
20432;DHT22;10375;49.136;10.366;2023-07-22T12:02:26;28.90;53.30
20432;DHT22;10375;49.136;10.366;2023-07-22T12:05:02;29.10;50.50
20432;DHT22;10375;49.136;10.366;2023-07-22T12:10:00;28.70;53.30
20432;DHT22;10375;49.136;10.366;2023-07-22T12:12:37;29.20;53.90
20432;DHT22;10375;49.136;10.366;2023-07-22T12:15:13;29.60;51.20
20432;DHT22;10375;49.136;10.366;2023-07-22T12:20:11;29.20;52.40
20432;DHT22;10375;49.136;10.366;2023-07-22T12:22:38;28.60;52.40
20432;DHT22;10375;49.136;10.366;2023-07-22T12:25:06;28.10;52.70
20432;DHT22;10375;49.136;10.366;2023-07-22T12:27:34;27.70;54.00
20432;DHT22;10375;49.136;10.366;2023-07-22T12:30:01;27.50;53.40
20432;DHT22;10375;49.136;10.366;2023-07-22T12:32:29;27.30;53.50
20432;DHT22;10375;49.136;10.366;2023-07-22T12:34:57;27.70;54.60
20432;DHT22;10375;49.136;10.366;2023-07-22T12:37:24;28.10;52.80
20432;DHT22;10375;49.136;10.366;2023-07-22T12:39:52;28.10;54.30
20432;DHT22;10375;49.136;10.366;2023-07-22T12:42:19;28.00;54.00
20432;DHT22;10375;49.136;10.366;2023-07-22T12:44:46;28.20;54.00
20432;DHT22;10375;49.136;10.366;2023-07-22T12:47:14;28.80;54.10
20432;DHT22;10375;49.136;10.366;2023-07-22T12:49:41;29.30;53.10
20432;DHT22;10375;49.136;10.366;2023-07-22T12:52:09;29.10;52.00
20432;DHT22;10375;49.136;10.366;2023-07-22T12:54:36;28.50;54.00
20432;DHT22;10375;49.136;10.366;2023-07-22T12:57:03;28.40;53.60
20432;DHT22;10375;49.136;10.366;2023-07-22T12:59:31;28.30;52.00
20432;DHT22;10375;49.136;10.366;2023-07-22T13:01:58;28.20;54.30
20432;DHT22;10375;49.136;10.366;2023-07-22T13:04:25;28.20;53.40
20432;DHT22;10375;49.136;10.366;2023-07-22T13:06:52;28.20;53.30
20432;DHT22;10375;49.136;10.366;2023-07-22T13:09:20;28.00;53.80
20432;DHT22;10375;49.136;10.366;2023-07-22T13:11:47;27.90;54.70
20432;DHT22;10375;49.136;10.366;2023-07-22T13:14:14;27.80;53.60
20432;DHT22;10375;49.136;10.366;2023-07-22T13:16:42;27.70;54.00
20432;DHT22;10375;49.136;10.366;2023-07-22T13:19:09;27.90;55.00
20432;DHT22;10375;49.136;10.366;2023-07-22T13:21:36;28.20;54.90
20432;DHT22;10375;49.136;10.366;2023-07-22T13:24:03;28.50;54.40
20432;DHT22;10375;49.136;10.366;2023-07-22T13:26:30;29.10;53.40
20432;DHT22;10375;49.136;10.366;2023-07-22T13:28:57;29.30;53.50
20432;DHT22;10375;49.136;10.366;2023-07-22T13:31:24;29.40;52.20
20432;DHT22;10375;49.136;10.366;2023-07-22T13:33:52;29.10;52.80
20432;DHT22;10375;49.136;10.366;2023-07-22T13:36:20;29.00;53.10
20432;DHT22;10375;49.136;10.366;2023-07-22T13:38:47;28.90;53.20
20432;DHT22;10375;49.136;10.366;2023-07-22T13:41:14;28.60;51.90
20432;DHT22;10375;49.136;10.366;2023-07-22T13:43:42;28.10;53.90
20432;DHT22;10375;49.136;10.366;2023-07-22T13:46:10;28.20;54.20
20432;DHT22;10375;49.136;10.366;2023-07-22T13:48:37;28.40;52.90
20432;DHT22;10375;49.136;10.366;2023-07-22T13:51:04;28.10;52.60
20432;DHT22;10375;49.136;10.366;2023-07-22T13:53:31;27.90;53.40
20432;DHT22;10375;49.136;10.366;2023-07-22T13:55:59;28.10;54.90
20432;DHT22;10375;49.136;10.366;2023-07-22T13:58:26;28.30;52.70
20432;DHT22;10375;49.136;10.366;2023-07-22T14:00:53;28.30;53.50
20432;DHT22;10375;49.136;10.366;2023-07-22T14:03:20;28.30;55.10
20432;DHT22;10375;49.136;10.366;2023-07-22T14:05:48;28.60;53.50
20432;DHT22;10375;49.136;10.366;2023-07-22T14:08:15;28.60;53.20
20432;DHT22;10375;49.136;10.366;2023-07-22T14:10:42;28.70;53.80
20432;DHT22;10375;49.136;10.366;2023-07-22T14:13:09;29.00;53.40
20432;DHT22;10375;49.136;10.366;2023-07-22T14:15:36;28.90;51.80
20432;DHT22;10375;49.136;10.366;2023-07-22T14:18:04;28.80;52.20
20432;DHT22;10375;49.136;10.366;2023-07-22T14:20:32;28.70;52.10
20432;DHT22;10375;49.136;10.366;2023-07-22T14:22:59;28.80;52.70
20432;DHT22;10375;49.136;10.366;2023-07-22T14:25:26;28.70;52.00
20432;DHT22;10375;49.136;10.366;2023-07-22T14:27:53;28.60;53.30
20432;DHT22;10375;49.136;10.366;2023-07-22T14:30:20;28.50;53.10
20432;DHT22;10375;49.136;10.366;2023-07-22T14:32:47;28.40;53.90
20432;DHT22;10375;49.136;10.366;2023-07-22T14:35:14;28.50;52.90
20432;DHT22;10375;49.136;10.366;2023-07-22T14:37:41;28.50;51.90
20432;DHT22;10375;49.136;10.366;2023-07-22T14:40:09;28.60;52.80
20432;DHT22;10375;49.136;10.366;2023-07-22T14:42:36;28.80;53.10
20432;DHT22;10375;49.136;10.366;2023-07-22T14:45:03;28.50;51.80
20432;DHT22;10375;49.136;10.366;2023-07-22T14:47:32;28.50;53.40
20432;DHT22;10375;49.136;10.366;2023-07-22T14:49:59;28.90;53.60
20432;DHT22;10375;49.136;10.366;2023-07-22T14:52:26;29.20;51.10
20432;DHT22;10375;49.136;10.366;2023-07-22T14:54:54;29.20;51.70
20432;DHT22;10375;49.136;10.366;2023-07-22T14:57:21;29.10;51.60
20432;DHT22;10375;49.136;10.366;2023-07-22T14:59:48;28.70;52.10
20432;DHT22;10375;49.136;10.366;2023-07-22T15:02:15;28.30;52.90
20432;DHT22;10375;49.136;10.366;2023-07-22T15:04:42;27.90;52.80
20432;DHT22;10375;49.136;10.366;2023-07-22T15:07:10;27.60;53.30
20432;DHT22;10375;49.136;10.366;2023-07-22T15:09:37;27.30;53.90
20432;DHT22;10375;49.136;10.366;2023-07-22T15:12:04;27.40;54.50
20432;DHT22;10375;49.136;10.366;2023-07-22T15:14:31;27.70;53.40
20432;DHT22;10375;49.136;10.366;2023-07-22T15:16:58;28.10;53.90
20432;DHT22;10375;49.136;10.366;2023-07-22T15:19:25;28.40;53.90
20432;DHT22;10375;49.136;10.366;2023-07-22T15:21:53;28.40;52.80
20432;DHT22;10375;49.136;10.366;2023-07-22T15:24:20;28.00;53.10
20432;DHT22;10375;49.136;10.366;2023-07-22T15:26:47;27.70;53.80
20432;DHT22;10375;49.136;10.366;2023-07-22T15:29:14;27.90;54.50
20432;DHT22;10375;49.136;10.366;2023-07-22T15:31:42;28.10;54.60